sensor_id;sensor_type;location;lat;lon;timestamp;temperature;humidity
39657;DHT22;25337;51.478;7.510;2022-07-29T00:01:48;18.30;99.20
39657;DHT22;25337;51.478;7.510;2022-07-29T00:04:14;18.30;99.20
39657;DHT22;25337;51.478;7.510;2022-07-29T00:06:40;18.20;99.20
39657;DHT22;25337;51.478;7.510;2022-07-29T00:09:05;18.20;99.50
39657;DHT22;25337;51.478;7.510;2022-07-29T00:11:31;18.10;99.60
39657;DHT22;25337;51.478;7.510;2022-07-29T00:13:56;18.10;99.70
39657;DHT22;25337;51.478;7.510;2022-07-29T00:16:22;18.10;99.90
39657;DHT22;25337;51.478;7.510;2022-07-29T00:18:48;18.20;99.90
39657;DHT22;25337;51.478;7.510;2022-07-29T00:21:13;18.20;99.90
39657;DHT22;25337;51.478;7.510;2022-07-29T00:23:39;18.20;99.80
39657;DHT22;25337;51.478;7.510;2022-07-29T00:26:05;18.10;99.90
39657;DHT22;25337;51.478;7.510;2022-07-29T00:28:30;18.20;99.90
39657;DHT22;25337;51.478;7.510;2022-07-29T00:30:56;18.20;99.90
39657;DHT22;25337;51.478;7.510;2022-07-29T00:33:21;18.20;99.90
39657;DHT22;25337;51.478;7.510;2022-07-29T00:35:48;18.20;99.90
39657;DHT22;25337;51.478;7.510;2022-07-29T00:38:15;18.20;99.90
39657;DHT22;25337;51.478;7.510;2022-07-29T00:40:42;18.20;99.90
39657;DHT22;25337;51.478;7.510;2022-07-29T00:43:07;18.10;99.90
39657;DHT22;25337;51.478;7.510;2022-07-29T00:45:33;17.90;99.90
39657;DHT22;25337;51.478;7.510;2022-07-29T00:47:59;17.90;99.90
39657;DHT22;25337;51.478;7.510;2022-07-29T00:50:24;17.80;99.90
39657;DHT22;25337;51.478;7.510;2022-07-29T00:52:50;17.80;99.90
39657;DHT22;25337;51.478;7.510;2022-07-29T00:55:16;17.80;99.90
39657;DHT22;25337;51.478;7.510;2022-07-29T00:57:42;17.70;99.90
39657;DHT22;25337;51.478;7.510;2022-07-29T01:00:09;17.60;99.90
39657;DHT22;25337;51.478;7.510;2022-07-29T01:02:35;17.60;99.90
39657;DHT22;25337;51.478;7.510;2022-07-29T01:05:01;17.60;99.90
39657;DHT22;25337;51.478;7.510;2022-07-29T01:07:27;17.50;99.90
39657;DHT22;25337;51.478;7.510;2022-07-29T01:09:54;17.50;99.90
39657;DHT22;25337;51.478;7.510;2022-07-29T01:12:23;17.40;99.90
39657;DHT22;25337;51.478;7.510;2022-07-29T01:14:49;17.40;99.90
39657;DHT22;25337;51.478;7.510;2022-07-29T01:22:31;17.30;99.90
39657;DHT22;25337;51.478;7.510;2022-07-29T01:30:14;17.00;99.90
39657;DHT22;25337;51.478;7.510;2022-07-29T01:32:40;16.90;99.90
39657;DHT22;25337;51.478;7.510;2022-07-29T01:40:00;16.60;99.90
39657;DHT22;25337;51.478;7.510;2022-07-29T01:45:06;16.50;99.90
39657;DHT22;25337;51.478;7.510;2022-07-29T01:50:14;16.60;99.90
39657;DHT22;25337;51.478;7.510;2022-07-29T01:53:15;16.50;99.90
39657;DHT22;25337;51.478;7.510;2022-07-29T01:55:34;16.40;99.90
39657;DHT22;25337;51.478;7.510;2022-07-29T01:58:00;16.20;99.90
39657;DHT22;25337;51.478;7.510;2022-07-29T02:00:27;16.20;99.90
39657;DHT22;25337;51.478;7.510;2022-07-29T02:02:53;16.10;99.90
39657;DHT22;25337;51.478;7.510;2022-07-29T02:05:20;15.90;99.90
39657;DHT22;25337;51.478;7.510;2022-07-29T02:07:46;15.70;99.90
39657;DHT22;25337;51.478;7.510;2022-07-29T02:10:13;15.60;99.90
39657;DHT22;25337;51.478;7.510;2022-07-29T02:12:40;15.50;99.90
39657;DHT22;25337;51.478;7.510;2022-07-29T02:15:07;15.40;99.90
39657;DHT22;25337;51.478;7.510;2022-07-29T02:17:35;15.40;99.90
39657;DHT22;25337;51.478;7.510;2022-07-29T02:20:04;15.30;99.90
39657;DHT22;25337;51.478;7.510;2022-07-29T02:22:31;15.30;99.90
39657;DHT22;25337;51.478;7.510;2022-07-29T02:24:57;15.30;99.90
39657;DHT22;25337;51.478;7.510;2022-07-29T02:27:23;15.30;99.90
39657;DHT22;25337;51.478;7.510;2022-07-29T02:29:50;15.30;99.90
39657;DHT22;25337;51.478;7.510;2022-07-29T02:32:16;15.30;99.90
39657;DHT22;25337;51.478;7.510;2022-07-29T02:34:43;15.30;99.90
39657;DHT22;25337;51.478;7.510;2022-07-29T02:37:09;15.30;99.90
39657;DHT22;25337;51.478;7.510;2022-07-29T02:39:35;15.20;99.90
39657;DHT22;25337;51.478;7.510;2022-07-29T02:42:03;15.20;99.90
39657;DHT22;25337;51.478;7.510;2022-07-29T02:44:29;15.20;99.90
39657;DHT22;25337;51.478;7.510;2022-07-29T02:46:59;15.30;99.90
39657;DHT22;25337;51.478;7.510;2022-07-29T02:49:32;15.40;99.90
39657;DHT22;25337;51.478;7.510;2022-07-29T02:51:59;15.60;99.90
39657;DHT22;25337;51.478;7.510;2022-07-29T02:57:04;15.60;99.90
39657;DHT22;25337;51.478;7.510;2022-07-29T02:59:31;15.60;99.90
39657;DHT22;25337;51.478;7.510;2022-07-29T03:01:58;15.50;99.90
39657;DHT22;25337;51.478;7.510;2022-07-29T03:04:25;15.40;99.90
39657;DHT22;25337;51.478;7.510;2022-07-29T03:06:53;15.30;99.90
39657;DHT22;25337;51.478;7.510;2022-07-29T03:09:19;15.20;99.90
39657;DHT22;25337;51.478;7.510;2022-07-29T03:11:45;15.10;99.90
39657;DHT22;25337;51.478;7.510;2022-07-29T03:14:11;15.10;99.90
39657;DHT22;25337;51.478;7.510;2022-07-29T03:16:37;15.20;99.90
39657;DHT22;25337;51.478;7.510;2022-07-29T03:19:03;15.30;99.90
39657;DHT22;25337;51.478;7.510;2022-07-29T03:21:29;15.20;99.90
39657;DHT22;25337;51.478;7.510;2022-07-29T03:23:55;15.30;99.90
39657;DHT22;25337;51.478;7.510;2022-07-29T03:26:20;15.40;99.90
39657;DHT22;25337;51.478;7.510;2022-07-29T03:28:46;15.60;99.90
39657;DHT22;25337;51.478;7.510;2022-07-29T03:31:11;15.80;99.90
39657;DHT22;25337;51.478;7.510;2022-07-29T03:33:37;15.80;99.90
39657;DHT22;25337;51.478;7.510;2022-07-29T03:36:02;15.60;99.90
39657;DHT22;25337;51.478;7.510;2022-07-29T03:38:29;15.60;99.90
39657;DHT22;25337;51.478;7.510;2022-07-29T03:41:00;15.50;99.90
39657;DHT22;25337;51.478;7.510;2022-07-29T03:43:27;15.50;99.90
39657;DHT22;25337;51.478;7.510;2022-07-29T03:45:54;15.50;99.90
39657;DHT22;25337;51.478;7.510;2022-07-29T03:48:20;15.50;99.90
39657;DHT22;25337;51.478;7.510;2022-07-29T03:50:47;15.40;99.90
39657;DHT22;25337;51.478;7.510;2022-07-29T03:53:13;15.40;99.90
39657;DHT22;25337;51.478;7.510;2022-07-29T03:55:43;15.40;99.90
39657;DHT22;25337;51.478;7.510;2022-07-29T03:58:10;15.30;99.90
39657;DHT22;25337;51.478;7.510;2022-07-29T04:00:37;15.40;99.90
39657;DHT22;25337;51.478;7.510;2022-07-29T04:03:03;15.50;99.90
39657;DHT22;25337;51.478;7.510;2022-07-29T04:05:29;15.60;99.90
39657;DHT22;25337;51.478;7.510;2022-07-29T04:07:54;15.60;99.90
39657;DHT22;25337;51.478;7.510;2022-07-29T04:10:20;15.60;99.90
39657;DHT22;25337;51.478;7.510;2022-07-29T04:12:45;15.70;99.90
39657;DHT22;25337;51.478;7.510;2022-07-29T04:15:11;15.80;99.90
39657;DHT22;25337;51.478;7.510;2022-07-29T04:17:37;15.80;99.90
39657;DHT22;25337;51.478;7.510;2022-07-29T04:20:03;15.80;99.90
39657;DHT22;25337;51.478;7.510;2022-07-29T04:22:29;15.80;99.90
39657;DHT22;25337;51.478;7.510;2022-07-29T04:24:54;15.80;99.90
39657;DHT22;25337;51.478;7.510;2022-07-29T04:27:20;16.00;99.90
39657;DHT22;25337;51.478;7.510;2022-07-29T04:29:45;16.30;99.90
39657;DHT22;25337;51.478;7.510;2022-07-29T04:32:11;16.40;99.90
39657;DHT22;25337;51.478;7.510;2022-07-29T04:34:36;16.50;99.90
39657;DHT22;25337;51.478;7.510;2022-07-29T04:37:02;16.50;99.90
39657;DHT22;25337;51.478;7.510;2022-07-29T04:39:27;16.50;99.90
39657;DHT22;25337;51.478;7.510;2022-07-29T04:41:53;16.50;99.90
39657;DHT22;25337;51.478;7.510;2022-07-29T04:44:18;16.50;99.90
39657;DHT22;25337;51.478;7.510;2022-07-29T04:46:44;16.50;99.90
39657;DHT22;25337;51.478;7.510;2022-07-29T04:49:10;16.60;99.90
39657;DHT22;25337;51.478;7.510;2022-07-29T04:51:35;16.60;99.90
39657;DHT22;25337;51.478;7.510;2022-07-29T04:54:01;16.60;99.90
39657;DHT22;25337;51.478;7.510;2022-07-29T04:56:26;16.60;99.90
39657;DHT22;25337;51.478;7.510;2022-07-29T04:58:52;16.70;99.90
39657;DHT22;25337;51.478;7.510;2022-07-29T05:01:17;16.60;99.90
39657;DHT22;25337;51.478;7.510;2022-07-29T05:03:43;16.70;99.90
39657;DHT22;25337;51.478;7.510;2022-07-29T05:06:09;16.70;99.90
39657;DHT22;25337;51.478;7.510;2022-07-29T05:08:34;16.70;99.90
39657;DHT22;25337;51.478;7.510;2022-07-29T05:11:00;16.70;99.90
39657;DHT22;25337;51.478;7.510;2022-07-29T05:13:25;16.70;99.90
39657;DHT22;25337;51.478;7.510;2022-07-29T05:15:51;16.80;99.90
39657;DHT22;25337;51.478;7.510;2022-07-29T05:18:17;16.70;99.90
39657;DHT22;25337;51.478;7.510;2022-07-29T05:20:42;16.70;99.90
39657;DHT22;25337;51.478;7.510;2022-07-29T05:23:08;16.70;99.90
39657;DHT22;25337;51.478;7.510;2022-07-29T05:25:34;16.60;99.90
39657;DHT22;25337;51.478;7.510;2022-07-29T05:27:59;16.60;99.90
39657;DHT22;25337;51.478;7.510;2022-07-29T05:30:25;16.80;99.90
39657;DHT22;25337;51.478;7.510;2022-07-29T05:32:50;16.80;99.90
39657;DHT22;25337;51.478;7.510;2022-07-29T05:35:16;16.80;99.90
39657;DHT22;25337;51.478;7.510;2022-07-29T05:37:42;16.80;99.90
39657;DHT22;25337;51.478;7.510;2022-07-29T05:40:07;16.90;99.90
39657;DHT22;25337;51.478;7.510;2022-07-29T05:42:33;16.90;99.90
39657;DHT22;25337;51.478;7.510;2022-07-29T05:44:59;16.80;99.90
39657;DHT22;25337;51.478;7.510;2022-07-29T05:47:25;16.90;99.90
39657;DHT22;25337;51.478;7.510;2022-07-29T05:49:50;17.00;99.90
39657;DHT22;25337;51.478;7.510;2022-07-29T05:52:16;17.10;99.90
39657;DHT22;25337;51.478;7.510;2022-07-29T05:54:42;17.10;99.90
39657;DHT22;25337;51.478;7.510;2022-07-29T05:57:08;17.20;99.90
39657;DHT22;25337;51.478;7.510;2022-07-29T05:59:36;17.30;99.90
39657;DHT22;25337;51.478;7.510;2022-07-29T06:02:02;17.40;99.90
39657;DHT22;25337;51.478;7.510;2022-07-29T06:04:28;17.50;99.90
39657;DHT22;25337;51.478;7.510;2022-07-29T06:06:53;17.60;99.90
39657;DHT22;25337;51.478;7.510;2022-07-29T06:09:19;17.80;99.90
39657;DHT22;25337;51.478;7.510;2022-07-29T06:11:44;17.90;99.90
39657;DHT22;25337;51.478;7.510;2022-07-29T06:14:10;18.00;99.90
39657;DHT22;25337;51.478;7.510;2022-07-29T06:16:35;18.00;99.90
39657;DHT22;25337;51.478;7.510;2022-07-29T06:19:01;18.00;99.90
39657;DHT22;25337;51.478;7.510;2022-07-29T06:21:26;18.10;99.90
39657;DHT22;25337;51.478;7.510;2022-07-29T06:23:52;17.90;99.90
39657;DHT22;25337;51.478;7.510;2022-07-29T06:26:17;17.80;99.90
39657;DHT22;25337;51.478;7.510;2022-07-29T06:28:43;17.90;99.90
39657;DHT22;25337;51.478;7.510;2022-07-29T06:31:08;18.10;99.90
39657;DHT22;25337;51.478;7.510;2022-07-29T06:33:34;18.30;99.90
39657;DHT22;25337;51.478;7.510;2022-07-29T06:36:00;18.50;99.90
39657;DHT22;25337;51.478;7.510;2022-07-29T06:38:25;18.60;99.90
39657;DHT22;25337;51.478;7.510;2022-07-29T06:40:51;18.60;99.90
39657;DHT22;25337;51.478;7.510;2022-07-29T06:43:37;18.50;99.90
39657;DHT22;25337;51.478;7.510;2022-07-29T06:46:13;18.50;99.90
39657;DHT22;25337;51.478;7.510;2022-07-29T06:48:39;18.70;99.90
39657;DHT22;25337;51.478;7.510;2022-07-29T06:51:05;18.90;99.90
39657;DHT22;25337;51.478;7.510;2022-07-29T06:53:32;19.10;99.90
39657;DHT22;25337;51.478;7.510;2022-07-29T06:55:58;19.40;99.90
39657;DHT22;25337;51.478;7.510;2022-07-29T06:58:24;19.40;99.90
39657;DHT22;25337;51.478;7.510;2022-07-29T07:00:50;19.60;99.90
39657;DHT22;25337;51.478;7.510;2022-07-29T07:03:17;19.50;99.90
39657;DHT22;25337;51.478;7.510;2022-07-29T07:05:43;19.70;99.90
39657;DHT22;25337;51.478;7.510;2022-07-29T07:08:09;19.80;99.90
39657;DHT22;25337;51.478;7.510;2022-07-29T07:10:35;19.70;99.90
39657;DHT22;25337;51.478;7.510;2022-07-29T07:13:01;19.70;99.90
39657;DHT22;25337;51.478;7.510;2022-07-29T07:15:27;19.60;99.90
39657;DHT22;25337;51.478;7.510;2022-07-29T07:17:52;19.60;99.90
39657;DHT22;25337;51.478;7.510;2022-07-29T07:20:18;19.70;99.90
39657;DHT22;25337;51.478;7.510;2022-07-29T07:22:43;19.70;99.90
39657;DHT22;25337;51.478;7.510;2022-07-29T07:25:09;19.90;99.90
39657;DHT22;25337;51.478;7.510;2022-07-29T07:27:35;19.90;99.90
39657;DHT22;25337;51.478;7.510;2022-07-29T07:30:02;20.10;99.90
39657;DHT22;25337;51.478;7.510;2022-07-29T07:32:28;20.30;99.90
39657;DHT22;25337;51.478;7.510;2022-07-29T07:34:54;20.20;99.90
39657;DHT22;25337;51.478;7.510;2022-07-29T07:37:19;20.20;99.90
39657;DHT22;25337;51.478;7.510;2022-07-29T07:39:45;20.60;99.90
39657;DHT22;25337;51.478;7.510;2022-07-29T07:42:11;20.90;99.90
39657;DHT22;25337;51.478;7.510;2022-07-29T07:44:40;21.20;99.90
39657;DHT22;25337;51.478;7.510;2022-07-29T07:47:06;21.00;99.90
39657;DHT22;25337;51.478;7.510;2022-07-29T07:49:32;21.10;99.90
39657;DHT22;25337;51.478;7.510;2022-07-29T07:51:57;20.90;99.90
39657;DHT22;25337;51.478;7.510;2022-07-29T07:54:23;21.00;99.90
39657;DHT22;25337;51.478;7.510;2022-07-29T07:56:48;20.80;99.90
39657;DHT22;25337;51.478;7.510;2022-07-29T07:59:15;20.80;99.90
39657;DHT22;25337;51.478;7.510;2022-07-29T08:01:41;20.80;99.90
39657;DHT22;25337;51.478;7.510;2022-07-29T08:04:06;21.00;99.90
39657;DHT22;25337;51.478;7.510;2022-07-29T08:06:33;21.30;99.70
39657;DHT22;25337;51.478;7.510;2022-07-29T08:09:00;21.50;99.20
39657;DHT22;25337;51.478;7.510;2022-07-29T08:11:25;21.30;99.70
39657;DHT22;25337;51.478;7.510;2022-07-29T08:13:51;21.40;99.00
39657;DHT22;25337;51.478;7.510;2022-07-29T08:16:17;21.50;99.60
39657;DHT22;25337;51.478;7.510;2022-07-29T08:18:43;21.70;99.90
39657;DHT22;25337;51.478;7.510;2022-07-29T08:21:09;21.90;98.60
39657;DHT22;25337;51.478;7.510;2022-07-29T08:23:35;22.20;97.30
39657;DHT22;25337;51.478;7.510;2022-07-29T08:26:07;22.60;97.40
39657;DHT22;25337;51.478;7.510;2022-07-29T08:28:39;23.10;95.70
39657;DHT22;25337;51.478;7.510;2022-07-29T08:31:05;23.60;95.00
39657;DHT22;25337;51.478;7.510;2022-07-29T08:33:30;23.80;94.60
39657;DHT22;25337;51.478;7.510;2022-07-29T08:35:56;24.00;94.20
39657;DHT22;25337;51.478;7.510;2022-07-29T08:38:22;24.00;94.10
39657;DHT22;25337;51.478;7.510;2022-07-29T08:40:47;23.90;95.60
39657;DHT22;25337;51.478;7.510;2022-07-29T08:43:13;24.00;94.10
39657;DHT22;25337;51.478;7.510;2022-07-29T08:45:43;23.90;93.50
39657;DHT22;25337;51.478;7.510;2022-07-29T08:48:10;23.90;93.20
39657;DHT22;25337;51.478;7.510;2022-07-29T08:50:36;24.00;93.20
39657;DHT22;25337;51.478;7.510;2022-07-29T08:53:02;24.00;93.60
39657;DHT22;25337;51.478;7.510;2022-07-29T08:55:28;24.20;93.40
39657;DHT22;25337;51.478;7.510;2022-07-29T08:57:53;24.30;92.60
39657;DHT22;25337;51.478;7.510;2022-07-29T09:00:19;24.70;92.70
39657;DHT22;25337;51.478;7.510;2022-07-29T09:02:47;24.30;92.10
39657;DHT22;25337;51.478;7.510;2022-07-29T09:05:16;24.20;92.40
39657;DHT22;25337;51.478;7.510;2022-07-29T09:07:42;24.30;92.30
39657;DHT22;25337;51.478;7.510;2022-07-29T09:10:09;24.50;92.60
39657;DHT22;25337;51.478;7.510;2022-07-29T09:12:35;24.50;93.30
39657;DHT22;25337;51.478;7.510;2022-07-29T09:15:00;24.30;92.20
39657;DHT22;25337;51.478;7.510;2022-07-29T09:17:42;24.00;93.40
39657;DHT22;25337;51.478;7.510;2022-07-29T09:20:11;24.00;92.10
39657;DHT22;25337;51.478;7.510;2022-07-29T09:22:37;24.00;92.00
39657;DHT22;25337;51.478;7.510;2022-07-29T09:25:03;23.80;92.50
39657;DHT22;25337;51.478;7.510;2022-07-29T09:27:28;23.90;92.70
39657;DHT22;25337;51.478;7.510;2022-07-29T09:29:58;24.00;93.10
39657;DHT22;25337;51.478;7.510;2022-07-29T09:32:24;23.90;93.10
39657;DHT22;25337;51.478;7.510;2022-07-29T09:34:49;23.80;92.90
39657;DHT22;25337;51.478;7.510;2022-07-29T09:37:27;23.80;93.00
39657;DHT22;25337;51.478;7.510;2022-07-29T09:39:53;23.50;94.20
39657;DHT22;25337;51.478;7.510;2022-07-29T09:42:28;23.50;95.40
39657;DHT22;25337;51.478;7.510;2022-07-29T09:44:54;23.40;95.40
39657;DHT22;25337;51.478;7.510;2022-07-29T09:47:20;23.30;95.90
39657;DHT22;25337;51.478;7.510;2022-07-29T09:49:56;23.70;95.70
39657;DHT22;25337;51.478;7.510;2022-07-29T09:52:23;23.70;95.20
39657;DHT22;25337;51.478;7.510;2022-07-29T09:54:49;24.00;95.40
39657;DHT22;25337;51.478;7.510;2022-07-29T09:57:22;24.50;94.70
39657;DHT22;25337;51.478;7.510;2022-07-29T10:00:04;24.50;94.30
39657;DHT22;25337;51.478;7.510;2022-07-29T10:02:32;23.80;95.50
39657;DHT22;25337;51.478;7.510;2022-07-29T10:04:59;23.70;95.80
39657;DHT22;25337;51.478;7.510;2022-07-29T10:07:24;23.90;95.80
39657;DHT22;25337;51.478;7.510;2022-07-29T10:09:54;23.80;95.80
39657;DHT22;25337;51.478;7.510;2022-07-29T10:12:21;23.60;96.20
39657;DHT22;25337;51.478;7.510;2022-07-29T10:14:47;23.20;96.50
39657;DHT22;25337;51.478;7.510;2022-07-29T10:17:12;22.80;97.60
39657;DHT22;25337;51.478;7.510;2022-07-29T10:19:38;22.60;97.90
39657;DHT22;25337;51.478;7.510;2022-07-29T10:22:07;22.30;97.80
39657;DHT22;25337;51.478;7.510;2022-07-29T10:24:36;22.40;98.50
39657;DHT22;25337;51.478;7.510;2022-07-29T10:27:03;22.40;98.20
39657;DHT22;25337;51.478;7.510;2022-07-29T10:29:29;22.30;98.60
39657;DHT22;25337;51.478;7.510;2022-07-29T10:40:03;21.90;99.70
39657;DHT22;25337;51.478;7.510;2022-07-29T10:42:52;21.70;99.90
39657;DHT22;25337;51.478;7.510;2022-07-29T10:45:18;21.80;99.90
39657;DHT22;25337;51.478;7.510;2022-07-29T10:47:44;21.70;99.90
39657;DHT22;25337;51.478;7.510;2022-07-29T10:50:10;21.70;99.90
39657;DHT22;25337;51.478;7.510;2022-07-29T10:55:31;21.70;99.90
39657;DHT22;25337;51.478;7.510;2022-07-29T10:58:16;21.40;99.90
39657;DHT22;25337;51.478;7.510;2022-07-29T11:00:42;21.30;99.90
39657;DHT22;25337;51.478;7.510;2022-07-29T11:03:08;21.30;99.90
39657;DHT22;25337;51.478;7.510;2022-07-29T11:05:53;21.20;99.90
39657;DHT22;25337;51.478;7.510;2022-07-29T11:08:20;21.30;99.90
39657;DHT22;25337;51.478;7.510;2022-07-29T11:10:48;21.30;99.90
39657;DHT22;25337;51.478;7.510;2022-07-29T11:15:58;21.80;99.90
39657;DHT22;25337;51.478;7.510;2022-07-29T11:18:24;21.80;99.90
39657;DHT22;25337;51.478;7.510;2022-07-29T11:20:50;21.70;99.90
39657;DHT22;25337;51.478;7.510;2022-07-29T11:25:45;22.00;99.90
39657;DHT22;25337;51.478;7.510;2022-07-29T11:28:13;22.10;99.90
39657;DHT22;25337;51.478;7.510;2022-07-29T11:30:49;22.00;99.90
39657;DHT22;25337;51.478;7.510;2022-07-29T11:33:31;22.30;99.90
39657;DHT22;25337;51.478;7.510;2022-07-29T11:36:15;22.70;99.90
39657;DHT22;25337;51.478;7.510;2022-07-29T11:38:41;22.80;99.90
39657;DHT22;25337;51.478;7.510;2022-07-29T11:41:20;23.10;99.90
39657;DHT22;25337;51.478;7.510;2022-07-29T11:43:53;23.50;99.30
39657;DHT22;25337;51.478;7.510;2022-07-29T11:49:03;23.20;99.20
39657;DHT22;25337;51.478;7.510;2022-07-29T11:51:29;22.90;99.90
39657;DHT22;25337;51.478;7.510;2022-07-29T11:53:55;22.80;99.90
39657;DHT22;25337;51.478;7.510;2022-07-29T11:56:20;22.60;99.90
39657;DHT22;25337;51.478;7.510;2022-07-29T11:58:46;22.20;99.90
39657;DHT22;25337;51.478;7.510;2022-07-29T12:01:16;22.30;99.90
39657;DHT22;25337;51.478;7.510;2022-07-29T12:03:42;22.40;99.90
39657;DHT22;25337;51.478;7.510;2022-07-29T12:06:13;22.40;99.90
39657;DHT22;25337;51.478;7.510;2022-07-29T12:08:39;22.30;99.90
39657;DHT22;25337;51.478;7.510;2022-07-29T12:11:14;22.10;99.90
39657;DHT22;25337;51.478;7.510;2022-07-29T12:13:40;22.20;99.90
39657;DHT22;25337;51.478;7.510;2022-07-29T12:16:05;22.00;99.90
39657;DHT22;25337;51.478;7.510;2022-07-29T12:18:31;21.80;99.90
39657;DHT22;25337;51.478;7.510;2022-07-29T12:20:57;21.70;99.90
39657;DHT22;25337;51.478;7.510;2022-07-29T12:23:23;21.70;99.90
39657;DHT22;25337;51.478;7.510;2022-07-29T12:25:48;21.80;99.90
39657;DHT22;25337;51.478;7.510;2022-07-29T12:28:14;21.70;99.90
39657;DHT22;25337;51.478;7.510;2022-07-29T12:30:44;21.90;99.90
39657;DHT22;25337;51.478;7.510;2022-07-29T12:33:21;21.70;99.90
39657;DHT22;25337;51.478;7.510;2022-07-29T12:35:49;21.70;99.90
39657;DHT22;25337;51.478;7.510;2022-07-29T12:38:16;21.80;99.90
39657;DHT22;25337;51.478;7.510;2022-07-29T12:40:41;21.90;99.90
39657;DHT22;25337;51.478;7.510;2022-07-29T12:43:17;22.00;99.90
39657;DHT22;25337;51.478;7.510;2022-07-29T12:45:44;22.10;99.90
39657;DHT22;25337;51.478;7.510;2022-07-29T12:48:10;22.50;99.90
39657;DHT22;25337;51.478;7.510;2022-07-29T12:50:36;23.00;99.90
39657;DHT22;25337;51.478;7.510;2022-07-29T12:53:12;23.80;99.00
39657;DHT22;25337;51.478;7.510;2022-07-29T12:55:41;24.30;98.30
39657;DHT22;25337;51.478;7.510;2022-07-29T12:58:07;24.30;97.50
39657;DHT22;25337;51.478;7.510;2022-07-29T13:00:33;24.40;97.10
39657;DHT22;25337;51.478;7.510;2022-07-29T13:02:59;24.20;97.50
39657;DHT22;25337;51.478;7.510;2022-07-29T13:05:38;23.70;98.10
39657;DHT22;25337;51.478;7.510;2022-07-29T13:08:11;23.70;98.40
39657;DHT22;25337;51.478;7.510;2022-07-29T13:10:39;23.50;98.60
39657;DHT22;25337;51.478;7.510;2022-07-29T13:13:09;23.20;99.20
39657;DHT22;25337;51.478;7.510;2022-07-29T13:15:36;22.70;99.90
39657;DHT22;25337;51.478;7.510;2022-07-29T13:18:02;22.40;99.90
39657;DHT22;25337;51.478;7.510;2022-07-29T13:20:28;21.90;99.90
39657;DHT22;25337;51.478;7.510;2022-07-29T13:22:57;22.10;99.90
39657;DHT22;25337;51.478;7.510;2022-07-29T13:25:24;22.20;99.90
39657;DHT22;25337;51.478;7.510;2022-07-29T13:27:49;21.90;99.90
39657;DHT22;25337;51.478;7.510;2022-07-29T13:30:15;22.10;99.90
39657;DHT22;25337;51.478;7.510;2022-07-29T13:32:41;22.20;99.90
39657;DHT22;25337;51.478;7.510;2022-07-29T13:35:07;22.60;99.90
39657;DHT22;25337;51.478;7.510;2022-07-29T13:37:33;23.20;99.90
39657;DHT22;25337;51.478;7.510;2022-07-29T13:40:00;24.00;99.90
39657;DHT22;25337;51.478;7.510;2022-07-29T13:42:28;24.40;99.90
39657;DHT22;25337;51.478;7.510;2022-07-29T13:44:53;24.60;99.90
39657;DHT22;25337;51.478;7.510;2022-07-29T13:47:19;24.80;99.90
39657;DHT22;25337;51.478;7.510;2022-07-29T13:49:45;26.30;98.30
39657;DHT22;25337;51.478;7.510;2022-07-29T13:52:10;27.40;95.90
39657;DHT22;25337;51.478;7.510;2022-07-29T13:54:36;27.80;93.50
39657;DHT22;25337;51.478;7.510;2022-07-29T13:57:04;27.80;93.60
39657;DHT22;25337;51.478;7.510;2022-07-29T13:59:30;27.60;93.10
39657;DHT22;25337;51.478;7.510;2022-07-29T14:01:56;26.20;94.60
39657;DHT22;25337;51.478;7.510;2022-07-29T14:04:21;26.40;94.70
39657;DHT22;25337;51.478;7.510;2022-07-29T14:06:48;26.20;94.90
39657;DHT22;25337;51.478;7.510;2022-07-29T14:09:14;26.30;93.50
39657;DHT22;25337;51.478;7.510;2022-07-29T14:11:40;26.60;94.20
39657;DHT22;25337;51.478;7.510;2022-07-29T14:14:05;26.60;93.90
39657;DHT22;25337;51.478;7.510;2022-07-29T14:16:31;26.20;94.10
39657;DHT22;25337;51.478;7.510;2022-07-29T14:18:56;26.80;93.20
39657;DHT22;25337;51.478;7.510;2022-07-29T14:21:22;27.20;93.40
39657;DHT22;25337;51.478;7.510;2022-07-29T14:23:47;27.20;93.20
39657;DHT22;25337;51.478;7.510;2022-07-29T14:26:14;26.10;93.70
39657;DHT22;25337;51.478;7.510;2022-07-29T14:28:40;26.20;93.70
39657;DHT22;25337;51.478;7.510;2022-07-29T14:31:05;27.10;93.00
39657;DHT22;25337;51.478;7.510;2022-07-29T14:33:31;27.50;92.50
39657;DHT22;25337;51.478;7.510;2022-07-29T14:35:56;27.10;92.10
39657;DHT22;25337;51.478;7.510;2022-07-29T14:38:22;27.30;92.30
39657;DHT22;25337;51.478;7.510;2022-07-29T14:40:48;27.50;91.90
39657;DHT22;25337;51.478;7.510;2022-07-29T14:43:14;27.60;91.60
39657;DHT22;25337;51.478;7.510;2022-07-29T14:45:40;27.50;91.60
39657;DHT22;25337;51.478;7.510;2022-07-29T14:48:05;27.80;91.40
39657;DHT22;25337;51.478;7.510;2022-07-29T14:50:31;28.00;91.00
39657;DHT22;25337;51.478;7.510;2022-07-29T14:52:57;28.30;90.50
39657;DHT22;25337;51.478;7.510;2022-07-29T14:55:22;28.80;90.70
39657;DHT22;25337;51.478;7.510;2022-07-29T14:57:48;29.10;89.70
39657;DHT22;25337;51.478;7.510;2022-07-29T15:00:15;29.10;89.80
39657;DHT22;25337;51.478;7.510;2022-07-29T15:02:41;28.70;89.20
39657;DHT22;25337;51.478;7.510;2022-07-29T15:05:06;28.30;89.50
39657;DHT22;25337;51.478;7.510;2022-07-29T15:07:32;29.20;88.60
39657;DHT22;25337;51.478;7.510;2022-07-29T15:09:57;30.00;87.10
39657;DHT22;25337;51.478;7.510;2022-07-29T15:12:23;30.90;85.30
39657;DHT22;25337;51.478;7.510;2022-07-29T15:14:48;31.00;84.80
39657;DHT22;25337;51.478;7.510;2022-07-29T15:17:14;31.10;83.80
39657;DHT22;25337;51.478;7.510;2022-07-29T15:19:40;31.80;82.20
39657;DHT22;25337;51.478;7.510;2022-07-29T15:22:05;32.00;82.60
39657;DHT22;25337;51.478;7.510;2022-07-29T15:24:31;32.40;80.90
39657;DHT22;25337;51.478;7.510;2022-07-29T15:26:56;32.00;80.20
39657;DHT22;25337;51.478;7.510;2022-07-29T15:29:22;30.30;82.20
39657;DHT22;25337;51.478;7.510;2022-07-29T15:31:48;29.50;83.30
39657;DHT22;25337;51.478;7.510;2022-07-29T15:34:13;29.40;83.50
39657;DHT22;25337;51.478;7.510;2022-07-29T15:36:39;29.60;82.70
39657;DHT22;25337;51.478;7.510;2022-07-29T15:39:04;29.90;83.80
39657;DHT22;25337;51.478;7.510;2022-07-29T15:41:30;29.50;83.10
39657;DHT22;25337;51.478;7.510;2022-07-29T15:43:56;29.30;83.60
39657;DHT22;25337;51.478;7.510;2022-07-29T15:46:21;28.70;84.80
39657;DHT22;25337;51.478;7.510;2022-07-29T15:49:06;28.20;86.60
39657;DHT22;25337;51.478;7.510;2022-07-29T15:51:31;27.80;88.00
39657;DHT22;25337;51.478;7.510;2022-07-29T15:53:57;27.60;87.80
39657;DHT22;25337;51.478;7.510;2022-07-29T15:56:23;26.80;90.40
39657;DHT22;25337;51.478;7.510;2022-07-29T15:58:49;27.80;89.70
39657;DHT22;25337;51.478;7.510;2022-07-29T16:01:14;28.50;88.50
39657;DHT22;25337;51.478;7.510;2022-07-29T16:03:40;29.30;86.50
39657;DHT22;25337;51.478;7.510;2022-07-29T16:06:06;29.10;86.40
39657;DHT22;25337;51.478;7.510;2022-07-29T16:08:31;29.30;85.90
39657;DHT22;25337;51.478;7.510;2022-07-29T16:10:57;28.60;86.60